createdAt,value
2019-06-27T00:00:27.835Z,65.80
2019-06-27T00:01:32.923Z,65.80
2019-06-27T00:02:37.422Z,65.70
2019-06-27T00:03:42.555Z,65.60
2019-06-27T00:04:47.088Z,65.60
2019-06-27T00:05:52.301Z,65.60
2019-06-27T00:06:56.790Z,65.60
2019-06-27T00:08:01.926Z,65.60
2019-06-27T00:09:08.124Z,65.70
2019-06-27T00:10:14.198Z,65.80
2019-06-27T00:11:19.418Z,65.80
2019-06-27T00:12:24.654Z,65.90
2019-06-27T00:13:29.459Z,65.90
2019-06-27T00:14:34.593Z,66.00
2019-06-27T00:15:39.111Z,66.10
2019-06-27T00:16:44.427Z,66.10
2019-06-27T00:17:48.935Z,66.10
2019-06-27T00:18:54.134Z,66.10
2019-06-27T00:19:58.630Z,66.00
2019-06-27T00:21:03.683Z,66.70
2019-06-27T00:22:08.177Z,65.90
2019-06-27T00:23:13.245Z,65.90
2019-06-27T00:24:17.846Z,65.80
2019-06-27T00:25:22.934Z,65.80
2019-06-27T00:26:27.460Z,65.80
2019-06-27T00:27:32.526Z,65.70
2019-06-27T00:28:37.106Z,65.60
2019-06-27T00:29:42.272Z,65.60
2019-06-27T00:30:46.799Z,65.50
2019-06-27T00:31:51.862Z,65.50
2019-06-27T00:32:56.439Z,65.40
2019-06-27T00:34:01.585Z,65.60
2019-06-27T00:35:07.953Z,65.50
2019-06-27T00:36:13.009Z,65.40
2019-06-27T00:37:17.500Z,65.30
2019-06-27T00:38:22.580Z,65.30
2019-06-27T00:39:27.154Z,65.30
2019-06-27T00:40:32.246Z,65.30
2019-06-27T00:41:36.801Z,65.30
2019-06-27T00:42:41.941Z,65.30
2019-06-27T00:43:46.413Z,65.40
2019-06-27T00:44:51.459Z,65.30
2019-06-27T00:45:56.080Z,65.20
2019-06-27T00:47:01.134Z,65.20
2019-06-27T00:48:05.680Z,65.10
2019-06-27T00:49:10.839Z,65.10
2019-06-27T00:50:15.938Z,65.10
2019-06-27T00:51:21.210Z,65.00
2019-06-27T00:52:25.938Z,64.90
2019-06-27T00:53:31.022Z,64.90
2019-06-27T00:54:35.491Z,64.90
2019-06-27T00:55:40.768Z,64.90
2019-06-27T00:56:45.245Z,64.90
2019-06-27T00:57:50.388Z,64.80
2019-06-27T00:58:54.856Z,64.80
2019-06-27T01:00:00.048Z,64.80
2019-06-27T01:01:05.087Z,64.90
2019-06-27T01:02:10.274Z,65.00
2019-06-27T01:03:14.741Z,64.90
2019-06-27T01:04:20.132Z,64.90
2019-06-27T01:05:24.670Z,64.90
2019-06-27T01:06:29.792Z,64.90
2019-06-27T01:07:34.432Z,64.90
2019-06-27T01:08:39.572Z,64.80
2019-06-27T01:09:44.195Z,64.80
2019-06-27T01:10:49.396Z,64.90
2019-06-27T01:11:53.888Z,64.80
2019-06-27T01:12:59.032Z,64.70
2019-06-27T01:14:04.744Z,64.70
2019-06-27T01:15:10.513Z,64.60
2019-06-27T01:16:15.038Z,64.70
2019-06-27T01:17:20.143Z,64.60
2019-06-27T01:18:24.673Z,64.70
2019-06-27T01:19:29.839Z,64.70
2019-06-27T01:20:34.623Z,64.70
2019-06-27T01:21:40.128Z,64.60
2019-06-27T01:22:44.872Z,64.60
2019-06-27T01:23:49.933Z,64.60
2019-06-27T01:24:55.272Z,64.50
2019-06-27T01:26:00.319Z,64.60
2019-06-27T01:27:04.863Z,64.50
2019-06-27T01:28:10.201Z,64.50
2019-06-27T01:29:14.696Z,64.40
2019-06-27T01:30:20.497Z,64.50
2019-06-27T01:31:25.044Z,64.40
2019-06-27T01:32:30.090Z,64.50
2019-06-27T01:33:34.574Z,64.40
2019-06-27T01:34:39.694Z,64.50
2019-06-27T01:35:44.174Z,64.40
2019-06-27T01:36:49.374Z,64.50
2019-06-27T01:37:54.024Z,64.50
2019-06-27T01:38:59.312Z,64.50
2019-06-27T01:40:09.082Z,64.50
2019-06-27T01:41:14.493Z,64.60
2019-06-27T01:42:18.979Z,64.80
2019-06-27T01:43:24.121Z,64.90
2019-06-27T01:44:39.237Z,64.80
2019-06-27T01:45:48.254Z,64.80
2019-06-27T01:46:52.794Z,64.80
2019-06-27T01:47:57.933Z,65.70
2019-06-27T01:49:02.503Z,65.30
2019-06-27T01:50:08.143Z,65.40
2019-06-27T01:51:12.653Z,65.50
2019-06-27T01:52:17.716Z,65.60
2019-06-27T01:53:22.178Z,65.60
2019-06-27T01:54:27.222Z,65.60
2019-06-27T01:55:31.899Z,65.70
2019-06-27T01:56:36.977Z,66.00
2019-06-27T01:57:46.772Z,65.90
2019-06-27T01:58:48.422Z,65.90
2019-06-27T01:59:52.982Z,65.90
2019-06-27T02:00:58.060Z,65.90
2019-06-27T02:02:02.604Z,66.00
2019-06-27T02:03:08.095Z,65.90
2019-06-27T02:04:12.564Z,65.90
2019-06-27T02:05:18.021Z,65.90
2019-06-27T02:06:22.556Z,65.80
2019-06-27T02:07:27.638Z,65.70
2019-06-27T02:08:32.250Z,65.90
2019-06-27T02:09:37.608Z,65.90
2019-06-27T02:10:43.030Z,65.90
2019-06-27T02:11:48.259Z,65.90
2019-06-27T02:12:52.732Z,65.90
2019-06-27T02:13:57.826Z,65.90
2019-06-27T02:15:02.322Z,65.90
2019-06-27T02:16:07.476Z,65.80
2019-06-27T02:17:12.298Z,65.90
2019-06-27T02:18:17.685Z,65.80
2019-06-27T02:19:22.228Z,65.80
2019-06-27T02:20:27.717Z,66.00
2019-06-27T02:21:32.471Z,66.00
2019-06-27T02:22:38.168Z,66.00
2019-06-27T02:23:42.740Z,65.90
2019-06-27T02:24:47.858Z,66.00
2019-06-27T02:25:52.321Z,66.00
2019-06-27T02:26:57.392Z,66.10
2019-06-27T02:28:04.075Z,66.10
2019-06-27T02:29:08.636Z,66.20
2019-06-27T02:30:14.053Z,66.30
2019-06-27T02:31:19.094Z,66.30
2019-06-27T02:32:23.660Z,66.40
2019-06-27T02:33:28.716Z,66.40
2019-06-27T02:34:33.203Z,66.40
2019-06-27T02:35:38.494Z,66.40
2019-06-27T02:36:42.987Z,66.20
2019-06-27T02:37:48.057Z,66.00
2019-06-27T02:38:52.551Z,65.80
2019-06-27T02:39:58.067Z,65.80
2019-06-27T02:41:02.757Z,65.70
2019-06-27T02:42:07.914Z,65.60
2019-06-27T02:43:12.469Z,65.50
2019-06-27T02:44:17.663Z,65.60
2019-06-27T02:45:22.219Z,65.50
2019-06-27T02:46:27.343Z,65.50
2019-06-27T02:47:31.828Z,65.60
2019-06-27T02:48:36.989Z,65.50
2019-06-27T02:49:41.479Z,65.50
2019-06-27T02:50:46.671Z,65.60
2019-06-27T02:51:51.269Z,65.70
2019-06-27T02:52:56.402Z,65.70
2019-06-27T02:54:00.974Z,65.80
2019-06-27T02:55:07.383Z,66.00
2019-06-27T02:56:11.941Z,66.10
2019-06-27T02:57:17.082Z,66.20
2019-06-27T02:58:31.378Z,66.50
2019-06-27T02:59:28.636Z,66.50
2019-06-27T03:00:33.182Z,66.60
2019-06-27T03:01:38.462Z,66.80
2019-06-27T03:02:42.989Z,66.90
2019-06-27T03:03:48.044Z,67.00
2019-06-27T03:04:52.635Z,67.10
2019-06-27T03:05:57.833Z,67.40
2019-06-27T03:07:02.570Z,67.60
2019-06-27T03:08:08.418Z,67.80
2019-06-27T03:09:13.124Z,67.90
2019-06-27T03:10:19.114Z,68.00
2019-06-27T03:11:23.600Z,68.10
2019-06-27T03:12:28.774Z,68.30
2019-06-27T03:13:33.266Z,68.40
2019-06-27T03:14:38.318Z,68.80
2019-06-27T03:15:43.385Z,69.00
2019-06-27T03:16:48.697Z,69.30
2019-06-27T03:17:53.328Z,69.30
2019-06-27T03:18:58.488Z,69.40
2019-06-27T03:20:04.410Z,69.50
2019-06-27T03:21:09.895Z,69.70
2019-06-27T03:22:14.356Z,69.50
2019-06-27T03:23:19.409Z,69.60
2019-06-27T03:24:24.100Z,69.60
2019-06-27T03:25:29.179Z,69.60
2019-06-27T03:26:33.746Z,69.70
2019-06-27T03:27:38.788Z,69.70
2019-06-27T03:28:51.670Z,69.70
2019-06-27T03:29:50.216Z,69.80
2019-06-27T03:30:54.725Z,69.80
2019-06-27T03:31:59.838Z,69.70
2019-06-27T03:33:04.317Z,69.80
2019-06-27T03:34:09.561Z,70.00
2019-06-27T03:35:14.255Z,70.30
2019-06-27T03:36:19.480Z,70.40
2019-06-27T03:37:23.972Z,70.50
2019-06-27T03:38:29.007Z,70.70
2019-06-27T03:39:33.631Z,70.90
2019-06-27T03:40:38.683Z,70.90
2019-06-27T03:41:43.240Z,71.00
2019-06-27T03:42:48.416Z,71.10
2019-06-27T03:43:53.086Z,71.20
2019-06-27T03:44:58.318Z,71.40
2019-06-27T03:46:02.788Z,71.60
2019-06-27T03:47:08.009Z,71.90
2019-06-27T03:48:12.523Z,71.80
2019-06-27T03:49:17.617Z,71.80
2019-06-27T03:50:22.297Z,72.10
2019-06-27T03:51:27.497Z,72.10
2019-06-27T03:52:32.170Z,72.10
2019-06-27T03:53:37.230Z,72.30
2019-06-27T03:54:41.762Z,72.40
2019-06-27T03:55:46.826Z,72.50
2019-06-27T03:56:51.305Z,72.60
2019-06-27T03:57:56.461Z,72.60
2019-06-27T03:59:12.522Z,72.80
2019-06-27T04:00:08.234Z,72.80
2019-06-27T04:01:12.755Z,72.90
2019-06-27T04:02:17.905Z,73.00
2019-06-27T04:03:22.408Z,73.10
2019-06-27T04:04:27.462Z,73.10
2019-06-27T04:05:31.952Z,73.10
2019-06-27T04:06:37.075Z,73.10
2019-06-27T04:07:41.584Z,73.10
2019-06-27T04:08:46.705Z,73.30
2019-06-27T04:09:51.199Z,73.40
2019-06-27T04:10:56.705Z,73.30
2019-06-27T04:12:01.289Z,73.30
2019-06-27T04:13:06.773Z,73.30
2019-06-27T04:14:11.239Z,73.30
2019-06-27T04:15:16.421Z,73.40
2019-06-27T04:16:21.171Z,73.40
2019-06-27T04:17:26.364Z,73.50
2019-06-27T04:18:30.894Z,73.70
2019-06-27T04:19:36.022Z,73.70
2019-06-27T04:20:40.519Z,73.70
2019-06-27T04:21:45.567Z,73.80
2019-06-27T04:22:50.137Z,73.90
2019-06-27T04:23:55.216Z,74.00
2019-06-27T04:24:59.810Z,74.10
2019-06-27T04:26:04.884Z,74.10
2019-06-27T04:27:09.369Z,74.00
2019-06-27T04:28:14.397Z,74.10
2019-06-27T04:29:32.712Z,74.80
2019-06-27T04:30:25.623Z,74.20
2019-06-27T04:31:30.121Z,74.20
2019-06-27T04:32:35.508Z,74.30
2019-06-27T04:33:40.107Z,74.30
2019-06-27T04:34:45.335Z,74.40
2019-06-27T04:35:49.831Z,74.40
2019-06-27T04:36:55.043Z,74.50
2019-06-27T04:37:59.928Z,75.20
2019-06-27T04:39:05.418Z,74.50
2019-06-27T04:40:09.978Z,74.50
2019-06-27T04:41:15.122Z,74.50
2019-06-27T04:42:19.617Z,74.60
2019-06-27T04:43:24.758Z,74.60
2019-06-27T04:44:29.228Z,74.60
2019-06-27T04:45:34.396Z,74.70
2019-06-27T04:46:39.211Z,74.70
2019-06-27T04:47:44.296Z,74.80
2019-06-27T04:48:48.859Z,74.70
2019-06-27T04:49:53.996Z,74.60
2019-06-27T04:50:58.597Z,74.60
2019-06-27T04:52:03.748Z,74.60
2019-06-27T04:53:08.350Z,74.70
2019-06-27T04:54:13.560Z,74.60
2019-06-27T04:55:18.031Z,74.60
2019-06-27T04:56:23.093Z,74.60
2019-06-27T04:57:27.580Z,74.60
2019-06-27T04:58:32.654Z,74.60
2019-06-27T04:59:52.630Z,74.80
2019-06-27T05:00:43.993Z,74.80
2019-06-27T05:01:48.478Z,74.90
2019-06-27T05:02:53.577Z,74.90
2019-06-27T05:03:58.169Z,74.90
2019-06-27T05:05:03.611Z,74.60
2019-06-27T05:06:08.440Z,74.30
2019-06-27T05:07:13.537Z,75.10
2019-06-27T05:08:18.059Z,74.30
2019-06-27T05:09:23.121Z,74.30
2019-06-27T05:10:27.683Z,74.20
2019-06-27T05:11:32.890Z,74.00
2019-06-27T05:12:37.424Z,73.90
2019-06-27T05:13:42.769Z,73.70
2019-06-27T05:14:47.275Z,73.50
2019-06-27T05:15:52.404Z,73.10
2019-06-27T05:16:56.888Z,72.90
2019-06-27T05:18:02.052Z,72.70
2019-06-27T05:19:06.853Z,72.50
2019-06-27T05:20:12.278Z,72.50
2019-06-27T05:21:16.838Z,72.40
2019-06-27T05:22:21.896Z,72.20
2019-06-27T05:23:26.385Z,72.10
2019-06-27T05:24:31.530Z,71.90
2019-06-27T05:25:36.021Z,71.70
2019-06-27T05:26:41.139Z,71.60
2019-06-27T05:27:45.603Z,71.50
2019-06-27T05:28:51.112Z,71.40
2019-06-27T05:30:08.661Z,71.20
2019-06-27T05:31:02.326Z,71.10
2019-06-27T05:32:06.798Z,71.00
2019-06-27T05:33:11.958Z,70.90
2019-06-27T05:34:16.650Z,70.80
2019-06-27T05:35:21.728Z,70.80
2019-06-27T05:36:26.217Z,70.80
2019-06-27T05:37:31.361Z,70.70
2019-06-27T05:38:35.848Z,70.70
2019-06-27T05:39:40.919Z,70.50
2019-06-27T05:40:45.413Z,70.40
2019-06-27T05:41:50.736Z,70.40
2019-06-27T05:42:55.219Z,70.30
2019-06-27T05:44:00.305Z,70.20
2019-06-27T05:45:06.421Z,70.00
2019-06-27T05:46:11.490Z,69.80
2019-06-27T05:47:15.968Z,69.60
2019-06-27T05:48:21.035Z,69.40
2019-06-27T05:49:25.514Z,69.20
2019-06-27T05:50:30.584Z,68.90
2019-06-27T05:51:35.119Z,68.60
2019-06-27T05:52:40.182Z,68.50
2019-06-27T05:53:45.825Z,68.50
2019-06-27T05:54:51.446Z,68.40
2019-06-27T05:55:55.966Z,68.10
2019-06-27T05:57:01.031Z,67.80
2019-06-27T05:58:05.530Z,67.70
2019-06-27T05:59:10.581Z,67.70
2019-06-27T06:00:28.291Z,67.50
2019-06-27T06:01:23.846Z,67.40
2019-06-27T06:02:28.360Z,67.10
2019-06-27T06:03:33.439Z,67.60
2019-06-27T06:04:37.976Z,66.80
2019-06-27T06:05:43.110Z,66.60
2019-06-27T06:06:47.579Z,66.60
2019-06-27T06:07:52.671Z,66.50
2019-06-27T06:08:57.299Z,66.30
2019-06-27T06:10:02.470Z,66.30
2019-06-27T06:11:07.076Z,66.30
2019-06-27T06:12:12.265Z,66.20
2019-06-27T06:13:16.726Z,66.30
2019-06-27T06:14:21.778Z,66.30
2019-06-27T06:15:26.320Z,66.40
2019-06-27T06:16:31.781Z,66.40
2019-06-27T06:17:36.326Z,66.40
2019-06-27T06:18:41.538Z,66.40
2019-06-27T06:19:46.302Z,66.40
2019-06-27T06:20:51.393Z,66.50
2019-06-27T06:21:55.932Z,66.50
2019-06-27T06:23:01.403Z,66.50
2019-06-27T06:24:06.021Z,66.50
2019-06-27T06:25:11.209Z,66.50
2019-06-27T06:26:15.678Z,66.40
2019-06-27T06:27:20.744Z,66.20
2019-06-27T06:28:25.246Z,66.10
2019-06-27T06:29:30.331Z,66.00
2019-06-27T06:30:44.249Z,65.90
2019-06-27T06:31:41.768Z,65.40
2019-06-27T06:32:46.302Z,65.70
2019-06-27T06:33:51.419Z,65.60
2019-06-27T06:34:55.893Z,66.40
2019-06-27T06:36:01.063Z,65.60
2019-06-27T06:37:08.046Z,65.50
2019-06-27T06:38:12.315Z,65.40
2019-06-27T06:39:16.888Z,65.40
2019-06-27T06:40:22.131Z,65.40
2019-06-27T06:41:26.662Z,65.30
2019-06-27T06:42:31.802Z,65.30
2019-06-27T06:43:36.315Z,65.20
2019-06-27T06:44:41.382Z,65.20
2019-06-27T06:45:45.938Z,65.30
2019-06-27T06:46:51.113Z,65.30
2019-06-27T06:47:55.603Z,65.30
2019-06-27T06:49:00.681Z,65.20
2019-06-27T06:50:06.471Z,65.20
2019-06-27T06:51:11.518Z,65.10
2019-06-27T06:52:16.099Z,65.00
2019-06-27T06:53:21.210Z,65.10
2019-06-27T06:54:25.670Z,65.10
2019-06-27T06:55:31.183Z,65.10
2019-06-27T06:56:35.668Z,65.10
2019-06-27T06:57:41.606Z,65.10
2019-06-27T06:58:46.206Z,65.00
2019-06-27T06:59:51.312Z,64.90
2019-06-27T07:01:01.728Z,64.90
2019-06-27T07:02:02.668Z,64.80
2019-06-27T07:03:07.159Z,64.60
2019-06-27T07:04:12.224Z,65.10
2019-06-27T07:05:16.795Z,64.40
2019-06-27T07:06:21.889Z,64.30
2019-06-27T07:07:26.452Z,64.30
2019-06-27T07:08:31.661Z,64.30
2019-06-27T07:09:36.174Z,64.10
2019-06-27T07:10:41.649Z,64.00
2019-06-27T07:11:46.247Z,64.00
2019-06-27T07:12:51.288Z,63.80
2019-06-27T07:13:55.752Z,63.60
2019-06-27T07:15:00.846Z,63.70
2019-06-27T07:16:05.650Z,63.60
2019-06-27T07:17:10.778Z,63.50
2019-06-27T07:18:15.270Z,63.40
2019-06-27T07:19:20.593Z,63.20
2019-06-27T07:20:25.146Z,62.30
2019-06-27T07:21:30.227Z,62.90
2019-06-27T07:22:34.739Z,62.80
2019-06-27T07:23:40.165Z,62.90
2019-06-27T07:24:44.829Z,62.90
2019-06-27T07:25:49.920Z,62.90
2019-06-27T07:26:54.477Z,62.90
2019-06-27T07:27:59.768Z,62.90
2019-06-27T07:29:04.332Z,62.90
2019-06-27T07:30:09.567Z,64.30
2019-06-27T07:31:18.085Z,62.90
2019-06-27T07:32:20.796Z,62.90
2019-06-27T07:33:25.285Z,63.00
2019-06-27T07:34:30.628Z,62.80
2019-06-27T07:35:35.181Z,62.90
2019-06-27T07:36:40.261Z,62.80
2019-06-27T07:37:44.829Z,62.80
2019-06-27T07:38:49.897Z,62.60
2019-06-27T07:39:54.397Z,62.60
2019-06-27T07:40:59.543Z,62.60
2019-06-27T07:42:04.149Z,62.70
2019-06-27T07:43:09.315Z,62.60
2019-06-27T07:44:13.796Z,62.60
2019-06-27T07:45:19.023Z,62.60
2019-06-27T07:46:25.627Z,62.60
2019-06-27T07:47:30.476Z,62.40
2019-06-27T07:48:35.249Z,62.40
2019-06-27T07:49:40.352Z,62.30
2019-06-27T07:50:44.898Z,62.40
2019-06-27T07:51:50.420Z,62.40
2019-06-27T07:52:54.927Z,65.30
2019-06-27T07:54:01.320Z,62.30
2019-06-27T07:55:07.068Z,62.30
2019-06-27T07:56:12.873Z,62.10
2019-06-27T07:57:17.450Z,62.20
2019-06-27T07:58:22.750Z,62.20
2019-06-27T07:59:27.316Z,62.10
2019-06-27T08:00:32.370Z,62.10
2019-06-27T08:01:36.887Z,62.10
2019-06-27T08:02:42.168Z,61.60
2019-06-27T08:03:46.714Z,61.50
2019-06-27T08:04:51.855Z,61.50
2019-06-27T08:05:56.337Z,61.40
2019-06-27T08:07:01.452Z,61.60
2019-06-27T08:08:05.940Z,61.50
2019-06-27T08:09:10.988Z,61.70
2019-06-27T08:10:16.305Z,61.80
2019-06-27T08:11:21.522Z,61.70
2019-06-27T08:12:26.008Z,61.90
2019-06-27T08:13:31.094Z,61.90
2019-06-27T08:14:35.756Z,61.90
2019-06-27T08:15:40.888Z,62.20
2019-06-27T08:16:45.474Z,62.10
2019-06-27T08:17:50.640Z,62.00
2019-06-27T08:18:55.155Z,61.80
2019-06-27T08:20:00.198Z,61.80
2019-06-27T08:21:05.936Z,61.70
2019-06-27T08:22:11.009Z,61.60
2019-06-27T08:23:15.545Z,61.60
2019-06-27T08:24:20.639Z,61.60
2019-06-27T08:25:25.281Z,61.60
2019-06-27T08:26:30.373Z,61.50
2019-06-27T08:27:34.984Z,61.40
2019-06-27T08:28:40.218Z,61.20
2019-06-27T08:29:44.823Z,61.00
2019-06-27T08:30:49.934Z,60.90
2019-06-27T08:31:54.484Z,60.90
2019-06-27T08:32:59.634Z,60.80
2019-06-27T08:34:04.279Z,60.60
2019-06-27T08:35:10.682Z,60.40
2019-06-27T08:36:15.247Z,60.30
2019-06-27T08:37:20.320Z,59.90
2019-06-27T08:38:24.800Z,59.80
2019-06-27T08:39:29.918Z,59.70
2019-06-27T08:40:34.830Z,59.50
2019-06-27T08:41:39.912Z,59.40
2019-06-27T08:42:44.429Z,59.30
2019-06-27T08:43:49.715Z,59.10
2019-06-27T08:44:54.267Z,58.80
2019-06-27T08:45:59.333Z,58.70
2019-06-27T08:47:04.011Z,58.60
2019-06-27T08:48:09.230Z,58.70
2019-06-27T08:49:13.741Z,58.50
2019-06-27T08:50:19.184Z,58.60
2019-06-27T08:51:23.741Z,58.50
2019-06-27T08:52:28.995Z,58.40
2019-06-27T08:53:33.495Z,58.50
2019-06-27T08:54:38.628Z,58.50
2019-06-27T08:55:43.367Z,58.20
2019-06-27T08:56:48.536Z,58.10
2019-06-27T08:57:53.012Z,58.10
2019-06-27T08:58:58.103Z,58.10
2019-06-27T09:00:02.662Z,58.10
2019-06-27T09:01:07.728Z,58.10
2019-06-27T09:02:12.336Z,58.20
2019-06-27T09:03:17.476Z,58.10
2019-06-27T09:04:21.959Z,57.90
2019-06-27T09:05:27.070Z,57.80
2019-06-27T09:06:31.566Z,57.60
2019-06-27T09:07:36.626Z,57.60
2019-06-27T09:08:41.116Z,57.50
2019-06-27T09:09:46.279Z,57.70
2019-06-27T09:10:50.996Z,57.60
2019-06-27T09:11:56.242Z,57.60
2019-06-27T09:13:00.818Z,57.60
2019-06-27T09:14:05.992Z,57.70
2019-06-27T09:15:11.599Z,57.70
2019-06-27T09:16:16.652Z,57.70
2019-06-27T09:17:21.297Z,57.30
2019-06-27T09:18:26.351Z,57.20
2019-06-27T09:19:30.924Z,57.10
2019-06-27T09:20:36.044Z,56.90
2019-06-27T09:21:40.519Z,56.80
2019-06-27T09:22:45.698Z,56.50
2019-06-27T09:23:50.234Z,56.50
2019-06-27T09:24:55.451Z,56.40
2019-06-27T09:26:00.068Z,56.20
2019-06-27T09:27:05.172Z,56.20
2019-06-27T09:28:09.644Z,56.20
2019-06-27T09:29:14.703Z,55.90
2019-06-27T09:30:19.586Z,55.60
2019-06-27T09:31:24.692Z,55.50
2019-06-27T09:32:29.225Z,55.20
2019-06-27T09:33:34.348Z,55.10
2019-06-27T09:34:38.888Z,55.00
2019-06-27T09:35:43.965Z,54.90
2019-06-27T09:36:48.414Z,54.90
2019-06-27T09:37:53.749Z,54.70
2019-06-27T09:38:58.278Z,54.30
2019-06-27T09:40:03.387Z,54.30
2019-06-27T09:41:07.946Z,54.20
2019-06-27T09:42:13.072Z,54.20
2019-06-27T09:43:17.613Z,54.10
2019-06-27T09:44:22.657Z,54.10
2019-06-27T09:45:27.306Z,53.90
2019-06-27T09:46:32.363Z,53.80
2019-06-27T09:47:36.842Z,53.60
2019-06-27T09:48:41.871Z,53.70
2019-06-27T09:49:46.331Z,53.50
2019-06-27T09:50:51.459Z,53.50
2019-06-27T09:51:56.029Z,53.40
2019-06-27T09:53:01.064Z,53.50
2019-06-27T09:54:05.621Z,53.50
2019-06-27T09:55:11.116Z,53.70
2019-06-27T09:56:15.604Z,53.70
2019-06-27T09:57:20.736Z,53.60
2019-06-27T09:58:25.304Z,53.50
2019-06-27T09:59:30.572Z,53.50
2019-06-27T10:00:35.044Z,53.30
2019-06-27T10:01:40.107Z,53.20
2019-06-27T10:02:44.738Z,53.20
2019-06-27T10:03:49.863Z,53.10
2019-06-27T10:04:54.342Z,53.20
2019-06-27T10:05:59.500Z,53.30
2019-06-27T10:07:04.004Z,53.30
2019-06-27T10:08:09.092Z,53.50
2019-06-27T10:09:13.611Z,53.40
2019-06-27T10:10:19.078Z,53.30
2019-06-27T10:11:23.556Z,53.20
2019-06-27T10:12:41.871Z,53.10
2019-06-27T10:13:35.168Z,53.00
2019-06-27T10:14:40.305Z,53.00
2019-06-27T10:15:44.770Z,53.00
2019-06-27T10:16:49.834Z,52.90
2019-06-27T10:17:54.332Z,52.90
2019-06-27T10:18:59.391Z,53.00
2019-06-27T10:20:05.996Z,52.90
2019-06-27T10:21:11.072Z,52.80
2019-06-27T10:22:15.601Z,52.70
2019-06-27T10:23:21.296Z,52.60
2019-06-27T10:24:26.684Z,52.60
2019-06-27T10:25:32.368Z,52.70
2019-06-27T10:26:37.197Z,52.70
2019-06-27T10:27:42.527Z,52.80
2019-06-27T10:28:47.349Z,52.70
2019-06-27T10:29:52.845Z,52.70
2019-06-27T10:30:57.363Z,52.60
2019-06-27T10:32:02.429Z,52.70
2019-06-27T10:33:06.988Z,52.70
2019-06-27T10:34:12.299Z,52.70
2019-06-27T10:35:16.787Z,52.50
2019-06-27T10:36:21.880Z,52.50
2019-06-27T10:37:26.415Z,52.60
2019-06-27T10:38:31.479Z,52.60
2019-06-27T10:39:36.002Z,52.60
2019-06-27T10:40:41.111Z,52.60
2019-06-27T10:41:45.652Z,52.50
2019-06-27T10:42:50.753Z,52.30
2019-06-27T10:43:58.300Z,52.30
2019-06-27T10:45:02.328Z,52.30
2019-06-27T10:46:06.836Z,52.30
2019-06-27T10:47:11.905Z,52.40
2019-06-27T10:48:16.610Z,52.40
2019-06-27T10:49:21.708Z,51.70
2019-06-27T10:50:26.302Z,51.30
2019-06-27T10:51:31.415Z,51.10
2019-06-27T10:52:35.912Z,50.80
2019-06-27T10:53:40.955Z,50.80
2019-06-27T10:54:45.426Z,50.80
2019-06-27T10:55:50.493Z,50.80
2019-06-27T10:56:54.974Z,50.60
2019-06-27T10:58:00.184Z,50.20
2019-06-27T10:59:04.727Z,49.90
2019-06-27T11:00:10.761Z,49.60
2019-06-27T11:01:15.288Z,49.50
2019-06-27T11:02:20.423Z,49.50
2019-06-27T11:03:24.984Z,49.40
2019-06-27T11:04:30.024Z,49.50
2019-06-27T11:05:34.574Z,49.30
2019-06-27T11:06:39.647Z,49.00
2019-06-27T11:07:44.203Z,48.70
2019-06-27T11:08:49.270Z,48.50
2019-06-27T11:23:00.760Z,46.70
2019-06-27T11:24:05.881Z,46.70
2019-06-27T11:25:11.997Z,46.20
2019-06-27T11:26:17.059Z,45.80
2019-06-27T11:27:21.550Z,45.40
2019-06-27T11:28:26.675Z,45.30
2019-06-27T11:29:31.156Z,45.10
2019-06-27T11:30:36.212Z,44.90
2019-06-27T11:31:40.690Z,44.60
2019-06-27T11:32:45.822Z,44.40
2019-06-27T11:33:50.376Z,44.10
2019-06-27T11:34:55.418Z,43.90
2019-06-27T11:35:59.893Z,43.90
2019-06-27T11:37:05.006Z,43.90
2019-06-27T11:38:09.492Z,43.70
2019-06-27T11:39:14.623Z,43.80
2019-06-27T11:40:19.431Z,43.80
2019-06-27T11:41:24.491Z,43.60
2019-06-27T11:42:30.006Z,43.40
2019-06-27T11:43:35.161Z,43.40
2019-06-27T11:44:39.870Z,43.30
2019-06-27T11:45:44.920Z,43.10
2019-06-27T11:46:49.408Z,43.00
2019-06-27T11:47:54.470Z,42.70
2019-06-27T11:48:58.952Z,42.60
2019-06-27T11:50:05.242Z,42.60
2019-06-27T11:51:09.868Z,42.50
2019-06-27T11:52:15.066Z,42.50
2019-06-27T11:53:19.518Z,42.50
2019-06-27T11:54:24.594Z,42.50
2019-06-27T11:55:29.068Z,42.50
2019-06-27T11:56:34.141Z,42.20
2019-06-27T11:57:38.719Z,42.10
2019-06-27T11:58:43.750Z,42.00
2019-06-27T11:59:48.259Z,41.90
2019-06-27T12:00:53.387Z,41.70
2019-06-27T12:01:57.924Z,41.40
2019-06-27T12:03:03.281Z,41.10
2019-06-27T12:04:08.015Z,40.90
2019-06-27T12:05:13.792Z,40.90
2019-06-27T12:06:18.274Z,41.00
2019-06-27T12:07:23.315Z,41.00
2019-06-27T12:08:27.823Z,41.00
2019-06-27T12:09:32.918Z,41.10
2019-06-27T12:10:37.444Z,41.00
2019-06-27T12:11:42.514Z,41.00
2019-06-27T12:12:46.981Z,40.90
2019-06-27T12:13:52.050Z,41.00
2019-06-27T12:14:56.556Z,41.00
2019-06-27T12:16:01.617Z,41.00
2019-06-27T12:17:06.152Z,40.90
2019-06-27T12:18:11.220Z,41.00
2019-06-27T12:19:15.698Z,41.00
2019-06-27T12:20:21.509Z,40.60
2019-06-27T12:21:25.965Z,40.40
2019-06-27T12:22:31.053Z,40.20
2019-06-27T12:23:35.518Z,40.00
2019-06-27T12:24:40.598Z,40.00
2019-06-27T12:25:45.081Z,40.00
2019-06-27T12:26:50.128Z,40.20
2019-06-27T12:27:54.604Z,40.40
2019-06-27T12:28:59.696Z,40.50
2019-06-27T12:30:08.360Z,40.50
2019-06-27T12:31:20.560Z,40.60
2019-06-27T12:32:19.582Z,40.70
2019-06-27T12:33:24.634Z,40.70
2019-06-27T12:34:29.170Z,40.60
2019-06-27T12:35:34.391Z,40.60
2019-06-27T12:36:38.929Z,40.50
2019-06-27T12:37:43.989Z,40.50
2019-06-27T12:38:48.464Z,40.30
2019-06-27T12:39:53.512Z,40.20
2019-06-27T12:40:58.111Z,39.60
2019-06-27T12:42:03.492Z,39.80
2019-06-27T12:43:08.054Z,39.70
2019-06-27T12:44:13.242Z,39.70
2019-06-27T12:45:18.411Z,39.60
2019-06-27T12:46:23.534Z,39.80
2019-06-27T12:47:28.045Z,39.90
2019-06-27T12:48:36.796Z,39.90
2019-06-27T12:49:56.909Z,39.60
2019-06-27T12:50:46.204Z,39.30
2019-06-27T12:51:50.746Z,39.30
2019-06-27T12:52:55.818Z,39.40
2019-06-27T12:54:00.306Z,39.50
2019-06-27T12:55:06.008Z,39.60
2019-06-27T12:56:10.516Z,39.70
2019-06-27T12:57:15.728Z,39.60
2019-06-27T12:58:20.263Z,39.70
2019-06-27T12:59:25.372Z,39.70
2019-06-27T13:00:30.029Z,40.10
2019-06-27T13:01:35.145Z,40.20
2019-06-27T13:02:39.748Z,40.20
2019-06-27T13:03:44.800Z,40.20
2019-06-27T13:04:49.364Z,40.30
2019-06-27T13:05:54.568Z,40.30
2019-06-27T13:06:59.194Z,40.10
2019-06-27T13:08:04.295Z,40.10
2019-06-27T13:09:08.779Z,39.90
2019-06-27T13:10:14.852Z,40.00
2019-06-27T13:11:19.411Z,39.80
2019-06-27T13:12:24.614Z,39.60
2019-06-27T13:13:30.502Z,39.50
2019-06-27T13:14:35.737Z,39.40
2019-06-27T13:15:40.219Z,39.10
2019-06-27T13:16:45.327Z,39.10
2019-06-27T13:17:49.820Z,38.90
2019-06-27T13:18:54.878Z,38.80
2019-06-27T13:19:59.359Z,38.80
2019-06-27T13:21:04.455Z,38.70
2019-06-27T13:22:08.925Z,38.70
2019-06-27T13:23:13.983Z,38.70
2019-06-27T13:24:18.695Z,38.70
2019-06-27T13:25:23.766Z,38.60
2019-06-27T13:26:28.666Z,38.60
2019-06-27T13:27:33.761Z,39.00
2019-06-27T13:28:38.385Z,42.20
2019-06-27T13:29:43.433Z,38.90
2019-06-27T13:30:47.915Z,39.00
2019-06-27T13:31:52.957Z,39.00
2019-06-27T13:32:57.449Z,39.20
2019-06-27T13:34:02.773Z,38.70
2019-06-27T13:35:07.331Z,38.90
2019-06-27T13:36:12.375Z,38.80
2019-06-27T13:37:16.842Z,38.90
2019-06-27T13:38:21.951Z,39.00
2019-06-27T13:39:26.459Z,38.80
2019-06-27T13:40:31.587Z,38.90
2019-06-27T13:41:36.223Z,39.10
2019-06-27T13:42:41.298Z,38.70
2019-06-27T13:43:49.160Z,41.90
2019-06-27T13:44:52.701Z,51.10
2019-06-27T13:45:57.183Z,58.00
2019-06-27T13:47:02.517Z,44.20
2019-06-27T13:48:07.103Z,44.20
2019-06-27T13:49:12.170Z,48.10
2019-06-27T13:50:16.792Z,40.50
2019-06-27T13:51:21.835Z,38.50
2019-06-27T13:52:26.302Z,38.40
2019-06-27T13:53:31.391Z,38.80
2019-06-27T13:54:35.920Z,42.50
2019-06-27T13:55:40.994Z,40.80
2019-06-27T13:56:45.505Z,42.10
2019-06-27T13:57:50.570Z,41.50
2019-06-27T13:58:55.064Z,44.30
2019-06-27T14:00:01.440Z,40.80
2019-06-27T14:01:06.222Z,43.50
2019-06-27T14:02:11.286Z,43.50
2019-06-27T14:03:15.799Z,43.20
2019-06-27T14:04:24.158Z,40.90
2019-06-27T14:05:27.348Z,40.90
2019-06-27T14:06:32.546Z,41.00
2019-06-27T14:07:37.097Z,40.90
2019-06-27T14:08:42.153Z,41.00
2019-06-27T14:09:53.678Z,41.10